Janesville, Wisconsin
Current Conditions -  °F | °C
As of 3:45 PM on Saturday 20 Dec 2014 (Local Time) from KJVL Reporting Station
Light Snow Light Snow  
Wind Chill: 30°   Ceiling: 3700
Heat Index: 30°   Visibility: 4mi
Dew Point: 28°   Wind: 0mph
Humidity: 93%   Direction: NA
Pressure: 30.22"   Gusts: NA
Location:  42.69°N, 89.02°W
Report Text: KJVL 202145Z 00000KT 4SM SG SCT010 OVC037 M01/M02 A3022
Loading
Personal Weather Stations






























Interactive Weather Map New forecast layout! Learn more

10-Day Weather Forecast

Advertisements
Track Severe Weather on mobile